sensor_id;sensor_type;location;lat;lon;timestamp;pressure;altitude;pressure_sealevel;temperature;humidity
23677;BME280;31493;49.058;12.190;2023-07-24T00:01:52;95665.78;;;21.77;40.81
23677;BME280;31493;49.058;12.190;2023-07-24T00:04:19;95650.00;;;21.84;40.90
23677;BME280;31493;49.058;12.190;2023-07-24T00:06:47;95655.13;;;21.49;41.77
23677;BME280;31493;49.058;12.190;2023-07-24T00:09:14;95630.00;;;21.32;42.35
23677;BME280;31493;49.058;12.190;2023-07-24T00:11:41;95617.03;;;21.31;41.62
23677;BME280;31493;49.058;12.190;2023-07-24T00:14:08;95613.31;;;21.25;42.37
23677;BME280;31493;49.058;12.190;2023-07-24T00:16:35;95606.81;;;21.06;42.96
23677;BME280;31493;49.058;12.190;2023-07-24T00:19:02;95585.50;;;20.86;43.32
23677;BME280;31493;49.058;12.190;2023-07-24T00:21:29;95576.81;;;20.71;43.84
23677;BME280;31493;49.058;12.190;2023-07-24T00:23:58;95573.34;;;20.85;43.80
23677;BME280;31493;49.058;12.190;2023-07-24T00:26:25;95563.63;;;20.71;44.10
23677;BME280;31493;49.058;12.190;2023-07-24T00:28:52;95554.75;;;20.57;44.09
23677;BME280;31493;49.058;12.190;2023-07-24T00:31:19;95550.69;;;20.55;43.91
23677;BME280;31493;49.058;12.190;2023-07-24T00:33:46;95551.88;;;20.52;44.51
23677;BME280;31493;49.058;12.190;2023-07-24T00:36:13;95541.44;;;20.29;44.74
23677;BME280;31493;49.058;12.190;2023-07-24T00:38:40;95542.34;;;20.22;45.26
23677;BME280;31493;49.058;12.190;2023-07-24T00:41:08;95547.69;;;20.28;45.85
23677;BME280;31493;49.058;12.190;2023-07-24T00:43:35;95549.50;;;20.28;45.77
23677;BME280;31493;49.058;12.190;2023-07-24T00:46:02;95560.75;;;20.22;45.48
23677;BME280;31493;49.058;12.190;2023-07-24T00:48:29;95560.69;;;20.30;44.43
23677;BME280;31493;49.058;12.190;2023-07-24T00:50:57;95571.88;;;20.32;44.71
23677;BME280;31493;49.058;12.190;2023-07-24T00:53:24;95571.31;;;20.51;44.80
23677;BME280;31493;49.058;12.190;2023-07-24T00:55:51;95581.66;;;20.53;44.63
23677;BME280;31493;49.058;12.190;2023-07-24T00:58:19;95592.38;;;20.51;44.45
23677;BME280;31493;49.058;12.190;2023-07-24T01:00:47;95590.97;;;20.70;43.83
23677;BME280;31493;49.058;12.190;2023-07-24T01:03:14;95577.31;;;20.45;45.06
23677;BME280;31493;49.058;12.190;2023-07-24T01:05:41;95580.00;;;20.52;44.50
23677;BME280;31493;49.058;12.190;2023-07-24T01:08:08;95576.09;;;20.48;44.48
23677;BME280;31493;49.058;12.190;2023-07-24T01:10:35;95565.06;;;20.37;44.83
23677;BME280;31493;49.058;12.190;2023-07-24T01:13:05;95557.97;;;20.38;45.37
23677;BME280;31493;49.058;12.190;2023-07-24T01:15:39;95564.56;;;20.63;44.34
23677;BME280;31493;49.058;12.190;2023-07-24T01:18:09;95570.09;;;20.68;43.72
23677;BME280;31493;49.058;12.190;2023-07-24T01:20:40;95594.66;;;19.26;48.14
23677;BME280;31493;49.058;12.190;2023-07-24T01:23:23;95639.06;;;18.82;49.78
23677;BME280;31493;49.058;12.190;2023-07-24T01:25:58;95654.00;;;18.34;52.77
23677;BME280;31493;49.058;12.190;2023-07-24T01:28:26;95642.34;;;18.37;52.71
23677;BME280;31493;49.058;12.190;2023-07-24T01:30:53;95641.31;;;18.54;52.32
23677;BME280;31493;49.058;12.190;2023-07-24T01:33:21;95640.28;;;18.71;51.36
23677;BME280;31493;49.058;12.190;2023-07-24T01:35:51;95628.94;;;18.79;51.18
23677;BME280;31493;49.058;12.190;2023-07-24T01:38:21;95634.63;;;18.91;50.75
23677;BME280;31493;49.058;12.190;2023-07-24T01:40:48;95630.03;;;19.16;50.14
23677;BME280;31493;49.058;12.190;2023-07-24T01:43:17;95630.22;;;19.37;49.15
23677;BME280;31493;49.058;12.190;2023-07-24T01:45:44;95640.72;;;19.37;48.93
23677;BME280;31493;49.058;12.190;2023-07-24T01:48:11;95615.41;;;19.44;48.78
23677;BME280;31493;49.058;12.190;2023-07-24T01:50:38;95567.31;;;19.58;48.37
23677;BME280;31493;49.058;12.190;2023-07-24T01:53:05;95610.25;;;19.74;47.77
23677;BME280;31493;49.058;12.190;2023-07-24T01:55:32;95614.38;;;19.53;48.13
23677;BME280;31493;49.058;12.190;2023-07-24T01:57:59;95594.53;;;19.65;47.66
23677;BME280;31493;49.058;12.190;2023-07-24T02:00:27;95586.81;;;19.87;46.62
23677;BME280;31493;49.058;12.190;2023-07-24T02:02:54;95596.38;;;19.80;46.78
23677;BME280;31493;49.058;12.190;2023-07-24T02:05:22;95587.75;;;19.86;46.51
23677;BME280;31493;49.058;12.190;2023-07-24T02:07:49;95577.25;;;19.86;46.66
23677;BME280;31493;49.058;12.190;2023-07-24T02:10:16;95579.25;;;19.84;46.27
23677;BME280;31493;49.058;12.190;2023-07-24T02:12:43;95600.19;;;19.92;46.45
23677;BME280;31493;49.058;12.190;2023-07-24T02:15:10;95616.56;;;19.87;46.69
23677;BME280;31493;49.058;12.190;2023-07-24T02:17:39;95624.50;;;19.79;46.99
23677;BME280;31493;49.058;12.190;2023-07-24T02:20:08;95619.13;;;19.73;46.80
23677;BME280;31493;49.058;12.190;2023-07-24T02:22:35;95615.41;;;19.67;46.95
23677;BME280;31493;49.058;12.190;2023-07-24T02:25:03;95598.09;;;19.73;47.13
23677;BME280;31493;49.058;12.190;2023-07-24T02:27:31;95578.94;;;19.64;47.33
23677;BME280;31493;49.058;12.190;2023-07-24T02:30:00;95560.34;;;19.51;47.79
23677;BME280;31493;49.058;12.190;2023-07-24T02:32:27;95571.00;;;19.49;47.86
23677;BME280;31493;49.058;12.190;2023-07-24T02:34:56;95566.84;;;19.55;47.81
23677;BME280;31493;49.058;12.190;2023-07-24T02:37:23;95576.13;;;19.43;47.93
23677;BME280;31493;49.058;12.190;2023-07-24T02:39:51;95576.63;;;19.46;47.96
23677;BME280;31493;49.058;12.190;2023-07-24T02:42:18;95561.34;;;19.42;48.36
23677;BME280;31493;49.058;12.190;2023-07-24T02:44:45;95561.72;;;19.38;48.31
23677;BME280;31493;49.058;12.190;2023-07-24T02:47:12;95557.50;;;19.29;48.44
23677;BME280;31493;49.058;12.190;2023-07-24T02:49:39;95556.97;;;19.34;48.33
23677;BME280;31493;49.058;12.190;2023-07-24T02:52:07;95547.81;;;19.30;48.45
23677;BME280;31493;49.058;12.190;2023-07-24T02:54:34;95538.19;;;19.22;48.52
23677;BME280;31493;49.058;12.190;2023-07-24T02:57:02;95540.50;;;19.17;48.66
23677;BME280;31493;49.058;12.190;2023-07-24T02:59:29;95536.78;;;19.11;49.19
23677;BME280;31493;49.058;12.190;2023-07-24T03:01:57;95545.34;;;19.05;49.00
23677;BME280;31493;49.058;12.190;2023-07-24T03:04:25;95527.34;;;19.02;49.52
23677;BME280;31493;49.058;12.190;2023-07-24T03:06:51;95520.97;;;18.97;49.42
23677;BME280;31493;49.058;12.190;2023-07-24T03:09:20;95517.28;;;19.06;48.99
23677;BME280;31493;49.058;12.190;2023-07-24T03:11:47;95503.00;;;19.08;49.22
23677;BME280;31493;49.058;12.190;2023-07-24T03:14:14;95504.09;;;19.14;49.01
23677;BME280;31493;49.058;12.190;2023-07-24T03:16:41;95496.31;;;19.21;49.24
23677;BME280;31493;49.058;12.190;2023-07-24T03:19:08;95501.22;;;19.24;49.46
23677;BME280;31493;49.058;12.190;2023-07-24T03:21:35;95492.31;;;19.25;49.09
23677;BME280;31493;49.058;12.190;2023-07-24T03:24:02;95489.28;;;19.13;49.24
23677;BME280;31493;49.058;12.190;2023-07-24T03:26:30;95482.81;;;19.01;49.40
23677;BME280;31493;49.058;12.190;2023-07-24T03:28:57;95478.88;;;19.05;49.46
23677;BME280;31493;49.058;12.190;2023-07-24T03:31:24;95480.44;;;19.14;49.01
23677;BME280;31493;49.058;12.190;2023-07-24T03:33:51;95480.38;;;19.22;48.88
23677;BME280;31493;49.058;12.190;2023-07-24T03:36:18;95479.13;;;19.33;48.52
23677;BME280;31493;49.058;12.190;2023-07-24T03:38:45;95482.00;;;19.23;49.84
23677;BME280;31493;49.058;12.190;2023-07-24T03:41:12;95483.88;;;18.69;51.10
23677;BME280;31493;49.058;12.190;2023-07-24T03:43:41;95485.19;;;18.73;50.98
23677;BME280;31493;49.058;12.190;2023-07-24T03:46:08;95477.41;;;19.02;49.48
23677;BME280;31493;49.058;12.190;2023-07-24T03:48:35;95489.63;;;18.95;50.04
23677;BME280;31493;49.058;12.190;2023-07-24T03:51:03;95496.09;;;19.07;49.38
23677;BME280;31493;49.058;12.190;2023-07-24T03:53:30;95499.13;;;18.96;50.24
23677;BME280;31493;49.058;12.190;2023-07-24T03:55:57;95506.34;;;19.17;49.44
23677;BME280;31493;49.058;12.190;2023-07-24T03:58:24;95518.56;;;19.10;49.34
23677;BME280;31493;49.058;12.190;2023-07-24T04:00:52;95535.03;;;19.04;49.77
23677;BME280;31493;49.058;12.190;2023-07-24T04:03:19;95542.31;;;18.94;49.36
23677;BME280;31493;49.058;12.190;2023-07-24T04:05:46;95548.09;;;19.35;48.41
23677;BME280;31493;49.058;12.190;2023-07-24T04:08:13;95572.69;;;19.19;49.22
23677;BME280;31493;49.058;12.190;2023-07-24T04:10:40;95583.44;;;19.09;49.25
23677;BME280;31493;49.058;12.190;2023-07-24T04:13:07;95596.72;;;18.85;50.58
23677;BME280;31493;49.058;12.190;2023-07-24T04:15:34;95593.59;;;18.90;50.93
23677;BME280;31493;49.058;12.190;2023-07-24T04:18:03;95577.34;;;18.86;51.33
23677;BME280;31493;49.058;12.190;2023-07-24T04:20:30;95551.28;;;19.07;51.11
23677;BME280;31493;49.058;12.190;2023-07-24T04:22:57;95522.31;;;18.93;51.17
23677;BME280;31493;49.058;12.190;2023-07-24T04:25:24;95461.94;;;19.07;50.61
23677;BME280;31493;49.058;12.190;2023-07-24T04:27:51;95425.31;;;19.06;51.32
23677;BME280;31493;49.058;12.190;2023-07-24T04:30:19;95369.53;;;19.04;52.04
23677;BME280;31493;49.058;12.190;2023-07-24T04:32:46;95376.94;;;19.00;52.78
23677;BME280;31493;49.058;12.190;2023-07-24T04:35:14;95368.13;;;18.93;52.94
23677;BME280;31493;49.058;12.190;2023-07-24T04:37:41;95349.03;;;18.99;52.94
23677;BME280;31493;49.058;12.190;2023-07-24T04:40:09;95356.13;;;19.13;52.53
23677;BME280;31493;49.058;12.190;2023-07-24T04:42:36;95369.09;;;19.30;52.06
23677;BME280;31493;49.058;12.190;2023-07-24T04:45:04;95405.63;;;19.39;51.69
23677;BME280;31493;49.058;12.190;2023-07-24T04:47:31;95427.97;;;19.58;51.71
23677;BME280;31493;49.058;12.190;2023-07-24T04:49:58;95423.25;;;19.54;51.72
23677;BME280;31493;49.058;12.190;2023-07-24T04:52:26;95423.50;;;19.44;52.97
23677;BME280;31493;49.058;12.190;2023-07-24T04:54:53;95411.41;;;19.35;53.22
23677;BME280;31493;49.058;12.190;2023-07-24T04:57:20;95401.28;;;19.32;53.54
23677;BME280;31493;49.058;12.190;2023-07-24T04:59:47;95407.78;;;19.36;53.86
23677;BME280;31493;49.058;12.190;2023-07-24T05:02:14;95411.09;;;19.53;53.66
23677;BME280;31493;49.058;12.190;2023-07-24T05:04:41;95409.19;;;19.61;53.25
23677;BME280;31493;49.058;12.190;2023-07-24T05:07:09;95412.72;;;19.54;53.45
23677;BME280;31493;49.058;12.190;2023-07-24T05:09:37;95418.16;;;19.67;53.65
23677;BME280;31493;49.058;12.190;2023-07-24T05:12:05;95419.97;;;19.66;53.20
23677;BME280;31493;49.058;12.190;2023-07-24T05:14:32;95425.88;;;19.54;53.84
23677;BME280;31493;49.058;12.190;2023-07-24T05:16:59;95427.78;;;19.60;54.15
23677;BME280;31493;49.058;12.190;2023-07-24T05:19:26;95426.69;;;19.69;54.02
23677;BME280;31493;49.058;12.190;2023-07-24T05:21:53;95422.13;;;19.33;55.28
23677;BME280;31493;49.058;12.190;2023-07-24T05:24:20;95408.69;;;19.43;54.81
23677;BME280;31493;49.058;12.190;2023-07-24T05:26:49;95419.63;;;19.17;55.60
23677;BME280;31493;49.058;12.190;2023-07-24T05:29:16;95424.69;;;19.04;56.29
23677;BME280;31493;49.058;12.190;2023-07-24T05:31:43;95430.72;;;18.90;56.53
23677;BME280;31493;49.058;12.190;2023-07-24T05:34:10;95415.03;;;18.81;56.70
23677;BME280;31493;49.058;12.190;2023-07-24T05:36:37;95407.84;;;18.75;57.66
23677;BME280;31493;49.058;12.190;2023-07-24T05:39:04;95395.06;;;19.10;57.20
23677;BME280;31493;49.058;12.190;2023-07-24T05:41:31;95384.75;;;19.23;56.86
23677;BME280;31493;49.058;12.190;2023-07-24T05:43:59;95376.38;;;19.57;55.88
23677;BME280;31493;49.058;12.190;2023-07-24T05:46:26;95372.25;;;19.84;54.54
23677;BME280;31493;49.058;12.190;2023-07-24T05:48:53;95379.72;;;19.81;54.53
23677;BME280;31493;49.058;12.190;2023-07-24T05:51:20;95366.78;;;20.01;53.99
23677;BME280;31493;49.058;12.190;2023-07-24T05:53:47;95373.94;;;19.92;54.22
23677;BME280;31493;49.058;12.190;2023-07-24T05:56:14;95363.28;;;19.93;54.21
23677;BME280;31493;49.058;12.190;2023-07-24T05:58:41;95351.13;;;19.78;53.00
23677;BME280;31493;49.058;12.190;2023-07-24T06:01:09;95378.03;;;19.95;53.56
23677;BME280;31493;49.058;12.190;2023-07-24T06:03:36;95366.56;;;19.81;54.48
23677;BME280;31493;49.058;12.190;2023-07-24T06:06:04;95349.53;;;19.98;53.74
23677;BME280;31493;49.058;12.190;2023-07-24T06:08:31;95354.69;;;20.06;52.88
23677;BME280;31493;49.058;12.190;2023-07-24T06:10:58;95361.66;;;20.14;52.55
23677;BME280;31493;49.058;12.190;2023-07-24T06:13:25;95373.22;;;20.34;52.51
23677;BME280;31493;49.058;12.190;2023-07-24T06:15:52;95378.88;;;20.53;52.31
23677;BME280;31493;49.058;12.190;2023-07-24T06:18:21;95375.38;;;20.45;52.23
23677;BME280;31493;49.058;12.190;2023-07-24T06:20:52;95365.06;;;20.29;52.86
23677;BME280;31493;49.058;12.190;2023-07-24T06:23:19;95360.84;;;20.50;52.19
23677;BME280;31493;49.058;12.190;2023-07-24T06:25:46;95344.59;;;20.46;52.00
23677;BME280;31493;49.058;12.190;2023-07-24T06:28:13;95362.59;;;20.06;53.57
23677;BME280;31493;49.058;12.190;2023-07-24T06:30:40;95346.22;;;20.47;52.96
23677;BME280;31493;49.058;12.190;2023-07-24T06:33:07;95347.63;;;20.71;51.83
23677;BME280;31493;49.058;12.190;2023-07-24T06:35:36;95365.81;;;20.66;52.70
23677;BME280;31493;49.058;12.190;2023-07-24T06:38:03;95365.66;;;20.67;52.52
23677;BME280;31493;49.058;12.190;2023-07-24T06:40:30;95369.09;;;20.68;51.96
23677;BME280;31493;49.058;12.190;2023-07-24T06:42:57;95349.09;;;20.73;52.90
23677;BME280;31493;49.058;12.190;2023-07-24T06:45:24;95359.19;;;20.70;52.38
23677;BME280;31493;49.058;12.190;2023-07-24T06:47:51;95354.25;;;21.10;51.82
23677;BME280;31493;49.058;12.190;2023-07-24T06:50:18;95356.38;;;20.99;51.67
23677;BME280;31493;49.058;12.190;2023-07-24T06:52:46;95342.38;;;20.99;52.14
23677;BME280;31493;49.058;12.190;2023-07-24T06:55:16;95354.25;;;21.10;52.02
23677;BME280;31493;49.058;12.190;2023-07-24T06:57:43;95362.97;;;21.45;51.56
23677;BME280;31493;49.058;12.190;2023-07-24T07:00:11;95359.22;;;21.61;50.58
23677;BME280;31493;49.058;12.190;2023-07-24T07:02:39;95350.56;;;21.39;51.14
23677;BME280;31493;49.058;12.190;2023-07-24T07:05:06;95360.19;;;21.53;50.79
23677;BME280;31493;49.058;12.190;2023-07-24T07:07:33;95352.75;;;21.70;50.46
23677;BME280;31493;49.058;12.190;2023-07-24T07:10:02;95360.41;;;21.99;50.41
23677;BME280;31493;49.058;12.190;2023-07-24T07:12:29;95373.81;;;21.98;50.47
23677;BME280;31493;49.058;12.190;2023-07-24T07:14:56;95360.88;;;21.75;51.39
23677;BME280;31493;49.058;12.190;2023-07-24T07:17:23;95360.03;;;22.02;50.83
23677;BME280;31493;49.058;12.190;2023-07-24T07:19:50;95354.09;;;22.00;51.54
23677;BME280;31493;49.058;12.190;2023-07-24T07:22:17;95357.97;;;21.57;52.20
23677;BME280;31493;49.058;12.190;2023-07-24T07:24:44;95382.84;;;21.82;52.38
23677;BME280;31493;49.058;12.190;2023-07-24T07:27:13;95365.78;;;21.78;51.91
23677;BME280;31493;49.058;12.190;2023-07-24T07:29:42;95351.25;;;21.54;53.24
23677;BME280;31493;49.058;12.190;2023-07-24T07:32:09;95345.88;;;21.75;53.62
23677;BME280;31493;49.058;12.190;2023-07-24T07:34:36;95345.59;;;21.57;53.92
23677;BME280;31493;49.058;12.190;2023-07-24T07:37:04;95351.03;;;21.49;54.19
23677;BME280;31493;49.058;12.190;2023-07-24T07:39:31;95370.53;;;21.20;55.12
23677;BME280;31493;49.058;12.190;2023-07-24T07:41:59;95392.00;;;20.95;55.53
23677;BME280;31493;49.058;12.190;2023-07-24T07:44:27;95380.06;;;21.21;55.64
23677;BME280;31493;49.058;12.190;2023-07-24T07:46:54;95384.69;;;21.12;55.31
23677;BME280;31493;49.058;12.190;2023-07-24T07:49:21;95398.75;;;20.98;56.45
23677;BME280;31493;49.058;12.190;2023-07-24T07:51:48;95412.34;;;21.02;56.68
23677;BME280;31493;49.058;12.190;2023-07-24T07:54:15;95434.75;;;20.69;57.62
23677;BME280;31493;49.058;12.190;2023-07-24T07:56:42;95465.34;;;20.49;58.32
23677;BME280;31493;49.058;12.190;2023-07-24T07:59:09;95487.91;;;20.37;58.95
23677;BME280;31493;49.058;12.190;2023-07-24T08:01:38;95499.78;;;20.33;59.49
23677;BME280;31493;49.058;12.190;2023-07-24T08:04:06;95510.13;;;20.34;60.33
23677;BME280;31493;49.058;12.190;2023-07-24T08:06:33;95522.47;;;20.19;60.44
23677;BME280;31493;49.058;12.190;2023-07-24T08:09:00;95520.84;;;20.18;61.39
23677;BME280;31493;49.058;12.190;2023-07-24T08:11:27;95527.19;;;20.09;61.28
23677;BME280;31493;49.058;12.190;2023-07-24T08:13:54;95527.72;;;20.04;61.89
23677;BME280;31493;49.058;12.190;2023-07-24T08:16:21;95531.72;;;20.00;62.18
23677;BME280;31493;49.058;12.190;2023-07-24T08:18:50;95534.00;;;20.18;62.52
23677;BME280;31493;49.058;12.190;2023-07-24T08:21:17;95539.53;;;20.08;63.24
23677;BME280;31493;49.058;12.190;2023-07-24T08:23:44;95535.44;;;19.91;64.37
23677;BME280;31493;49.058;12.190;2023-07-24T08:26:11;95532.97;;;19.60;65.60
23677;BME280;31493;49.058;12.190;2023-07-24T08:28:38;95553.66;;;19.63;66.40
23677;BME280;31493;49.058;12.190;2023-07-24T08:31:07;95547.72;;;19.61;66.96
23677;BME280;31493;49.058;12.190;2023-07-24T08:33:35;95559.78;;;19.55;67.75
23677;BME280;31493;49.058;12.190;2023-07-24T08:36:05;95542.56;;;19.67;67.98
23677;BME280;31493;49.058;12.190;2023-07-24T08:38:32;95539.41;;;19.72;68.98
23677;BME280;31493;49.058;12.190;2023-07-24T08:41:03;95539.75;;;19.54;69.28
23677;BME280;31493;49.058;12.190;2023-07-24T08:43:32;95534.78;;;19.59;69.93
23677;BME280;31493;49.058;12.190;2023-07-24T08:46:01;95542.38;;;19.54;70.11
23677;BME280;31493;49.058;12.190;2023-07-24T08:48:30;95537.00;;;19.48;71.07
23677;BME280;31493;49.058;12.190;2023-07-24T08:50:59;95532.03;;;19.53;70.95
23677;BME280;31493;49.058;12.190;2023-07-24T08:53:29;95533.16;;;19.73;71.09
23677;BME280;31493;49.058;12.190;2023-07-24T08:55:56;95523.81;;;19.85;71.63
23677;BME280;31493;49.058;12.190;2023-07-24T08:58:24;95503.78;;;19.70;72.08
23677;BME280;31493;49.058;12.190;2023-07-24T09:00:51;95489.81;;;19.69;72.52
23677;BME280;31493;49.058;12.190;2023-07-24T09:03:18;95488.88;;;19.47;73.42
23677;BME280;31493;49.058;12.190;2023-07-24T09:05:45;95490.06;;;19.59;73.54
23677;BME280;31493;49.058;12.190;2023-07-24T09:08:13;95483.19;;;19.35;73.52
23677;BME280;31493;49.058;12.190;2023-07-24T09:10:41;95503.03;;;19.61;74.04
23677;BME280;31493;49.058;12.190;2023-07-24T09:13:11;95488.34;;;19.66;73.01
23677;BME280;31493;49.058;12.190;2023-07-24T09:15:40;95489.44;;;19.57;73.08
23677;BME280;31493;49.058;12.190;2023-07-24T09:18:07;95485.91;;;19.65;73.10
23677;BME280;31493;49.058;12.190;2023-07-24T09:20:38;95473.22;;;19.69;73.52
23677;BME280;31493;49.058;12.190;2023-07-24T09:23:06;95452.78;;;20.00;71.97
23677;BME280;31493;49.058;12.190;2023-07-24T09:25:35;95429.13;;;19.85;71.86
23677;BME280;31493;49.058;12.190;2023-07-24T09:28:10;95402.41;;;20.03;70.94
23677;BME280;31493;49.058;12.190;2023-07-24T09:30:38;95391.22;;;19.65;70.44
23677;BME280;31493;49.058;12.190;2023-07-24T09:33:05;95429.25;;;19.62;71.74
23677;BME280;31493;49.058;12.190;2023-07-24T09:35:32;95422.44;;;19.53;72.12
23677;BME280;31493;49.058;12.190;2023-07-24T09:38:04;95401.03;;;19.71;73.17
23677;BME280;31493;49.058;12.190;2023-07-24T09:40:39;95411.66;;;19.63;71.98
23677;BME280;31493;49.058;12.190;2023-07-24T09:43:19;95393.94;;;19.72;72.00
23677;BME280;31493;49.058;12.190;2023-07-24T09:45:47;95403.81;;;19.84;69.63
23677;BME280;31493;49.058;12.190;2023-07-24T09:48:15;95384.38;;;20.00;69.70
23677;BME280;31493;49.058;12.190;2023-07-24T09:50:44;95384.97;;;20.32;68.71
23677;BME280;31493;49.058;12.190;2023-07-24T09:53:14;95379.94;;;20.58;68.08
23677;BME280;31493;49.058;12.190;2023-07-24T09:55:50;95383.84;;;20.90;66.94
23677;BME280;31493;49.058;12.190;2023-07-24T09:58:20;95356.69;;;21.11;65.10
23677;BME280;31493;49.058;12.190;2023-07-24T10:00:48;95351.94;;;21.69;62.73
23677;BME280;31493;49.058;12.190;2023-07-24T10:03:16;95337.94;;;21.75;61.45
23677;BME280;31493;49.058;12.190;2023-07-24T10:05:44;95339.56;;;22.44;59.35
23677;BME280;31493;49.058;12.190;2023-07-24T10:08:11;95333.13;;;23.06;57.04
23677;BME280;31493;49.058;12.190;2023-07-24T10:10:39;95320.06;;;23.45;55.35
23677;BME280;31493;49.058;12.190;2023-07-24T10:13:07;95328.69;;;23.72;54.21
23677;BME280;31493;49.058;12.190;2023-07-24T10:15:38;95345.06;;;23.49;51.95
23677;BME280;31493;49.058;12.190;2023-07-24T10:18:07;95351.41;;;23.34;53.01
23677;BME280;31493;49.058;12.190;2023-07-24T10:20:35;95333.91;;;23.27;53.38
23677;BME280;31493;49.058;12.190;2023-07-24T10:23:03;95324.34;;;23.39;52.05
23677;BME280;31493;49.058;12.190;2023-07-24T10:25:31;95325.56;;;23.17;52.35
23677;BME280;31493;49.058;12.190;2023-07-24T10:28:02;95323.53;;;23.38;52.54
23677;BME280;31493;49.058;12.190;2023-07-24T10:30:34;95322.72;;;23.11;51.66
23677;BME280;31493;49.058;12.190;2023-07-24T10:33:08;95322.88;;;23.50;52.75
23677;BME280;31493;49.058;12.190;2023-07-24T10:35:40;95323.50;;;23.45;52.55
23677;BME280;31493;49.058;12.190;2023-07-24T10:38:07;95338.19;;;23.86;51.67
23677;BME280;31493;49.058;12.190;2023-07-24T10:40:34;95325.94;;;23.98;49.85
23677;BME280;31493;49.058;12.190;2023-07-24T10:43:05;95326.53;;;24.70;49.04
23677;BME280;31493;49.058;12.190;2023-07-24T10:45:39;95341.97;;;24.48;49.31
23677;BME280;31493;49.058;12.190;2023-07-24T10:48:08;95352.28;;;24.31;49.30
23677;BME280;31493;49.058;12.190;2023-07-24T10:50:38;95344.72;;;24.66;48.33
23677;BME280;31493;49.058;12.190;2023-07-24T10:53:05;95333.38;;;24.84;49.00
23677;BME280;31493;49.058;12.190;2023-07-24T10:55:32;95335.13;;;24.65;49.56
23677;BME280;31493;49.058;12.190;2023-07-24T10:57:59;95317.59;;;24.64;49.41
23677;BME280;31493;49.058;12.190;2023-07-24T11:00:26;95321.28;;;25.13;47.58
23677;BME280;31493;49.058;12.190;2023-07-24T11:02:54;95328.91;;;24.85;47.96
23677;BME280;31493;49.058;12.190;2023-07-24T11:05:22;95335.63;;;24.24;48.42
23677;BME280;31493;49.058;12.190;2023-07-24T11:07:50;95342.44;;;24.38;49.31
23677;BME280;31493;49.058;12.190;2023-07-24T11:10:17;95327.75;;;24.11;50.58
23677;BME280;31493;49.058;12.190;2023-07-24T11:12:45;95324.09;;;24.05;51.16
23677;BME280;31493;49.058;12.190;2023-07-24T11:15:13;95340.56;;;24.14;51.73
23677;BME280;31493;49.058;12.190;2023-07-24T11:17:41;95336.69;;;24.03;50.96
23677;BME280;31493;49.058;12.190;2023-07-24T11:20:10;95336.53;;;23.91;51.90
23677;BME280;31493;49.058;12.190;2023-07-24T11:22:43;95323.09;;;24.00;51.61
23677;BME280;31493;49.058;12.190;2023-07-24T11:25:11;95314.75;;;23.96;52.05
23677;BME280;31493;49.058;12.190;2023-07-24T11:27:39;95325.03;;;24.24;51.87
23677;BME280;31493;49.058;12.190;2023-07-24T11:30:08;95328.81;;;24.35;51.44
23677;BME280;31493;49.058;12.190;2023-07-24T11:32:37;95327.34;;;24.70;50.81
23677;BME280;31493;49.058;12.190;2023-07-24T11:35:05;95315.16;;;24.63;51.14
23677;BME280;31493;49.058;12.190;2023-07-24T11:37:34;95308.59;;;24.65;50.79
23677;BME280;31493;49.058;12.190;2023-07-24T11:40:03;95315.41;;;25.30;49.51
23677;BME280;31493;49.058;12.190;2023-07-24T11:42:37;95321.44;;;24.43;50.76
23677;BME280;31493;49.058;12.190;2023-07-24T11:45:05;95317.03;;;23.86;51.15
23677;BME280;31493;49.058;12.190;2023-07-24T11:47:41;95322.19;;;24.19;50.99
23677;BME280;31493;49.058;12.190;2023-07-24T11:50:08;95331.50;;;24.28;51.85
23677;BME280;31493;49.058;12.190;2023-07-24T11:52:39;95322.44;;;24.11;51.74
23677;BME280;31493;49.058;12.190;2023-07-24T11:55:08;95312.72;;;24.05;52.84
23677;BME280;31493;49.058;12.190;2023-07-24T11:57:36;95324.69;;;23.56;53.64
23677;BME280;31493;49.058;12.190;2023-07-24T12:00:04;95318.38;;;23.57;53.58
23677;BME280;31493;49.058;12.190;2023-07-24T12:02:32;95312.47;;;23.61;54.28
23677;BME280;31493;49.058;12.190;2023-07-24T12:05:00;95311.69;;;23.48;54.60
23677;BME280;31493;49.058;12.190;2023-07-24T12:07:30;95318.75;;;23.60;54.79
23677;BME280;31493;49.058;12.190;2023-07-24T12:09:58;95314.97;;;23.36;55.20
23677;BME280;31493;49.058;12.190;2023-07-24T12:12:36;95318.84;;;23.41;55.80
23677;BME280;31493;49.058;12.190;2023-07-24T12:15:04;95308.28;;;23.34;56.52
23677;BME280;31493;49.058;12.190;2023-07-24T12:17:31;95314.13;;;23.43;56.60
23677;BME280;31493;49.058;12.190;2023-07-24T12:19:58;95314.19;;;23.16;57.92
23677;BME280;31493;49.058;12.190;2023-07-24T12:22:25;95316.22;;;23.21;58.84
23677;BME280;31493;49.058;12.190;2023-07-24T12:24:52;95317.13;;;23.66;61.05
23677;BME280;31493;49.058;12.190;2023-07-24T12:27:19;95309.63;;;23.63;58.78
23677;BME280;31493;49.058;12.190;2023-07-24T12:29:48;95309.47;;;23.45;59.67
23677;BME280;31493;49.058;12.190;2023-07-24T12:32:15;95327.78;;;23.39;60.11
23677;BME280;31493;49.058;12.190;2023-07-24T12:34:42;95331.25;;;23.40;60.39
23677;BME280;31493;49.058;12.190;2023-07-24T12:37:09;95312.31;;;23.36;59.09
23677;BME280;31493;49.058;12.190;2023-07-24T12:39:36;95326.78;;;23.27;58.58
23677;BME280;31493;49.058;12.190;2023-07-24T12:42:05;95335.31;;;23.36;58.17
23677;BME280;31493;49.058;12.190;2023-07-24T12:44:32;95338.78;;;23.36;59.06
23677;BME280;31493;49.058;12.190;2023-07-24T12:47:01;95331.50;;;22.85;61.42
23677;BME280;31493;49.058;12.190;2023-07-24T12:49:28;95346.31;;;22.53;62.77
23677;BME280;31493;49.058;12.190;2023-07-24T12:51:55;95364.13;;;22.25;64.06
23677;BME280;31493;49.058;12.190;2023-07-24T12:54:22;95414.69;;;22.15;65.32